createdAt,value
2017-05-09T00:01:09.614Z,6.95
2017-05-09T00:03:37.057Z,6.78
2017-05-09T00:06:04.513Z,6.05
2017-05-09T02:38:01.622Z,7.95
2017-05-09T02:40:29.065Z,9.87
2017-05-09T02:43:01.374Z,8.35
2017-05-09T02:45:28.830Z,7.83
2017-05-09T02:47:56.299Z,8.47
2017-05-09T02:50:23.750Z,7.68
2017-05-09T02:52:51.250Z,11.97
2017-05-09T02:55:18.766Z,8.38
2017-05-09T02:57:46.238Z,13.47
2017-05-09T03:00:14.542Z,8.63
2017-05-09T03:22:17.945Z,20.06
2017-05-09T03:24:50.407Z,13.85
2017-05-09T03:27:17.842Z,10.45
2017-05-09T03:29:45.281Z,12.90
2017-05-09T03:32:12.779Z,9.97
2017-05-09T03:34:40.216Z,14.15
2017-05-09T03:37:07.690Z,13.13
2017-05-09T03:39:35.119Z,9.47
2017-05-09T03:42:02.567Z,11.17
2017-05-09T03:44:30.026Z,9.62
2017-05-09T03:46:57.465Z,8.98
2017-05-09T03:49:24.906Z,9.37
2017-05-09T03:51:52.342Z,8.52
2017-05-09T03:54:19.797Z,8.82
2017-05-09T03:56:47.255Z,11.38
2017-05-09T03:59:14.698Z,10.75
2017-05-09T04:01:42.170Z,10.70
2017-05-09T04:04:09.610Z,12.90
2017-05-09T04:06:37.061Z,10.20
2017-05-09T04:09:04.838Z,10.67
2017-05-09T04:11:32.280Z,10.35
2017-05-09T04:13:59.753Z,12.40
2017-05-09T04:16:27.193Z,10.85
2017-05-09T04:18:54.620Z,10.18
2017-05-09T04:21:22.069Z,16.37
2017-05-09T04:23:49.490Z,13.10
2017-05-09T04:26:16.934Z,11.85
2017-05-09T04:28:44.356Z,9.47
2017-05-09T04:31:11.794Z,12.85
2017-05-09T04:33:39.257Z,17.70
2017-05-09T04:36:06.718Z,15.85
2017-05-09T04:38:34.190Z,11.50
2017-05-09T04:41:01.655Z,12.82
2017-05-09T04:43:29.116Z,10.55
2017-05-09T04:45:56.587Z,11.65
2017-05-09T04:48:24.026Z,9.90
2017-05-09T04:55:45.398Z,9.08
2017-05-09T04:58:12.850Z,8.83
2017-05-09T05:03:07.249Z,8.35
2017-05-09T05:05:34.676Z,11.10
2017-05-09T05:08:02.109Z,9.05
2017-05-09T05:10:30.554Z,9.80
2017-05-09T05:12:57.975Z,9.48
2017-05-09T05:15:26.051Z,9.03
2017-05-09T05:17:53.478Z,8.97
2017-05-09T05:20:20.910Z,11.30
2017-05-09T05:22:48.353Z,11.33
2017-05-09T05:25:15.789Z,12.57
2017-05-09T05:27:44.183Z,11.32
2017-05-09T05:30:11.607Z,10.23
2017-05-09T05:32:39.027Z,8.83
2017-05-09T05:35:06.467Z,9.87
2017-05-09T05:37:33.904Z,10.15
2017-05-09T05:40:01.373Z,8.60
2017-05-09T05:42:28.861Z,11.52
2017-05-09T05:44:56.328Z,9.48
2017-05-09T05:47:23.784Z,9.67
2017-05-09T05:49:51.281Z,9.93
2017-05-09T05:52:18.733Z,9.95
2017-05-09T05:54:46.174Z,10.68
2017-05-09T05:57:13.618Z,9.00
2017-05-09T05:59:41.063Z,8.72
2017-05-09T06:02:08.490Z,9.10
2017-05-09T06:04:35.950Z,12.40
2017-05-09T06:07:03.380Z,10.17
2017-05-09T06:09:30.814Z,8.10
2017-05-09T06:11:58.275Z,9.17
2017-05-09T06:14:25.726Z,8.32
2017-05-09T06:16:53.190Z,8.38
2017-05-09T06:19:20.615Z,9.33
2017-05-09T06:21:48.067Z,9.15
2017-05-09T06:24:15.527Z,10.30
2017-05-09T06:26:44.869Z,8.30
2017-05-09T06:34:06.254Z,7.60
2017-05-09T06:36:33.690Z,9.48
2017-05-09T06:39:01.170Z,10.17
2017-05-09T06:41:28.613Z,9.37
2017-05-09T06:43:56.044Z,9.18
2017-05-09T06:46:23.515Z,10.27
2017-05-09T06:48:50.954Z,8.17
2017-05-09T06:51:18.413Z,9.35
2017-05-09T06:53:45.850Z,10.72
2017-05-09T06:56:13.294Z,11.75
2017-05-09T06:58:40.753Z,11.86
2017-05-09T07:01:08.185Z,9.37
2017-05-09T07:03:35.642Z,9.63
2017-05-09T07:06:03.065Z,9.75
2017-05-09T07:08:30.502Z,10.35
2017-05-09T07:10:58.014Z,9.70
2017-05-09T07:13:25.538Z,9.27
2017-05-09T07:16:05.783Z,11.07
2017-05-09T07:18:33.230Z,8.67
2017-05-09T07:21:00.706Z,8.70
2017-05-09T07:23:28.254Z,8.58
2017-05-09T07:25:55.756Z,10.03
2017-05-09T07:28:23.190Z,7.37
2017-05-09T07:30:50.635Z,8.10
2017-05-09T07:33:18.079Z,12.42
2017-05-09T07:35:45.523Z,10.60
2017-05-09T07:38:13.043Z,10.38
2017-05-09T07:40:40.591Z,7.75
2017-05-09T07:43:08.095Z,5.98
2017-05-09T07:45:35.534Z,6.78
2017-05-09T07:48:03.039Z,5.92
2017-05-09T07:50:37.517Z,6.60
2017-05-09T07:53:04.974Z,7.10
2017-05-09T07:55:32.490Z,5.13
2017-05-09T07:58:00.121Z,7.82
2017-05-09T08:00:27.601Z,5.50
2017-05-09T08:02:55.058Z,4.67
2017-05-09T08:05:25.822Z,9.32
2017-05-09T08:07:53.294Z,7.45
2017-05-09T08:10:20.841Z,5.52
2017-05-09T08:12:48.294Z,9.07
2017-05-09T08:15:15.774Z,7.22
2017-05-09T08:17:43.210Z,6.35
2017-05-09T08:20:10.691Z,6.48
2017-05-09T08:22:38.127Z,7.70
2017-05-09T08:25:05.591Z,7.10
2017-05-09T08:27:33.127Z,7.03
2017-05-09T08:30:11.759Z,5.93
2017-05-09T08:32:39.204Z,4.75
2017-05-09T08:35:06.714Z,5.10
2017-05-09T08:37:34.220Z,7.20
2017-05-09T08:40:01.715Z,6.02
2017-05-09T08:42:30.098Z,4.70
2017-05-09T08:44:57.561Z,4.58
2017-05-09T08:47:25.013Z,5.58
2017-05-09T08:49:52.481Z,5.83
2017-05-09T08:52:19.973Z,5.82
2017-05-09T08:54:47.648Z,5.78
2017-05-09T08:57:18.600Z,6.23
2017-05-09T08:59:46.064Z,10.28
2017-05-09T09:02:13.530Z,6.77
2017-05-09T09:04:40.990Z,5.18
2017-05-09T09:07:08.447Z,9.62
2017-05-09T09:09:35.906Z,4.80
2017-05-09T09:12:03.346Z,4.80
2017-05-09T09:14:30.786Z,4.38
2017-05-09T09:16:58.226Z,4.85
2017-05-09T09:19:25.671Z,5.23
2017-05-09T09:21:53.109Z,3.70
2017-05-09T09:24:26.066Z,4.35
2017-05-09T09:26:53.526Z,4.28
